Time;durP1;ratioP1;P1;durP2;ratioP2;P2;SDS_P1;SDS_P2;PMS_P1;PMS_P2;Temp;Humidity;BMP_temperature;BMP_pressure;BME280_temperature;BME280_humidity;BME280_pressure;Samples;Min_cycle;Max_cycle;Signal;HPM_P1;HPM_P2
2022/02/27 00:00:38;;;;;;;1.33;0.70;;;8.20;40.00;;;;;;5054741;28;20029;-68
2022/02/27 00:03:04;;;;;;;2.70;0.80;;;8.20;39.40;;;;;;5053951;28;20111;-69
2022/02/27 00:05:30;;;;;;;1.40;0.73;;;8.20;40.20;;;;;;5054644;28;20075;-67
2022/02/27 00:07:55;;;;;;;1.83;0.80;;;8.20;40.20;;;;;;5054895;28;20025;-68
2022/02/27 00:10:22;;;;;;;2.33;1.07;;;8.20;40.00;;;;;;5054572;28;20025;-68
2022/02/27 00:12:50;;;;;;;2.60;0.80;;;8.20;40.40;;;;;;5054569;28;20035;-68
2022/02/27 00:15:16;;;;;;;3.97;0.73;;;8.20;40.90;;;;;;5054734;28;20029;-67
2022/02/27 00:17:42;;;;;;;2.87;0.70;;;8.20;40.50;;;;;;5054659;28;20544;-68
2022/02/27 00:20:10;;;;;;;2.60;0.80;;;8.20;40.20;;;;;;5054638;28;20096;-68
2022/02/27 00:22:36;;;;;;;2.97;0.70;;;8.20;40.50;;;;;;5054204;28;20037;-68
2022/02/27 00:25:02;;;;;;;1.90;0.60;;;8.20;40.10;;;;;;5054458;28;20025;-68
2022/02/27 00:27:28;;;;;;;3.37;0.90;;;8.20;40.10;;;;;;5054459;28;20031;-73
2022/02/27 00:29:54;;;;;;;4.93;1.53;;;8.30;39.90;;;;;;5054389;28;20465;-73
2022/02/27 00:32:20;;;;;;;3.20;1.00;;;8.30;39.90;;;;;;5054399;28;20063;-74
2022/02/27 00:34:46;;;;;;;1.83;0.70;;;8.30;39.60;;;;;;5054036;28;20081;-68
2022/02/27 00:37:12;;;;;;;2.27;0.80;;;8.30;39.70;;;;;;5054245;28;20064;-68
2022/02/27 00:39:37;;;;;;;2.90;0.80;;;8.20;39.60;;;;;;5054176;28;20036;-68
2022/02/27 00:42:04;;;;;;;2.73;0.80;;;8.20;39.90;;;;;;5054003;28;20029;-74
2022/02/27 00:44:30;;;;;;;1.43;0.53;;;8.20;40.30;;;;;;5053870;28;20416;-69
2022/02/27 00:46:55;;;;;;;1.40;0.73;;;8.20;39.90;;;;;;5053843;28;20031;-68
2022/02/27 00:49:21;;;;;;;0.93;0.50;;;8.20;39.50;;;;;;5053662;28;20025;-68
2022/02/27 00:51:47;;;;;;;2.97;0.70;;;8.30;39.70;;;;;;5053920;28;20083;-68
2022/02/27 00:54:13;;;;;;;1.80;0.80;;;8.20;39.40;;;;;;5053917;28;20524;-68
2022/02/27 00:56:39;;;;;;;1.63;0.70;;;8.20;40.00;;;;;;5053954;28;20087;-67
2022/02/27 00:59:05;;;;;;;1.93;0.67;;;8.20;39.90;;;;;;5053799;28;20121;-68
2022/02/27 01:01:31;;;;;;;2.53;0.73;;;8.20;40.60;;;;;;5053790;28;20114;-68
2022/02/27 01:03:57;;;;;;;2.50;0.77;;;8.20;40.00;;;;;;5053653;28;20458;-68
2022/02/27 01:06:23;;;;;;;2.10;0.70;;;8.10;39.90;;;;;;5053728;28;20024;-68
2022/02/27 01:08:49;;;;;;;2.43;0.80;;;8.20;41.00;;;;;;5053930;28;20068;-68
2022/02/27 01:11:15;;;;;;;1.70;0.83;;;8.10;41.10;;;;;;5053187;28;20106;-68
2022/02/27 01:13:41;;;;;;;2.03;0.90;;;8.10;41.40;;;;;;5052495;28;20035;-69
2022/02/27 01:16:08;;;;;;;3.53;0.90;;;8.10;41.40;;;;;;5053318;28;20043;-68
2022/02/27 01:18:33;;;;;;;2.73;0.70;;;8.10;41.40;;;;;;5053455;28;20028;-69
2022/02/27 01:20:59;;;;;;;1.80;0.60;;;8.00;41.50;;;;;;5053319;28;20029;-74
2022/02/27 01:23:25;;;;;;;1.57;0.70;;;8.00;41.70;;;;;;5053564;28;20025;-74
2022/02/27 01:25:51;;;;;;;1.67;0.70;;;8.00;41.70;;;;;;5053033;28;20039;-69
2022/02/27 01:28:16;;;;;;;1.47;0.70;;;8.00;40.80;;;;;;5053060;28;20411;-69
2022/02/27 01:30:42;;;;;;;1.97;0.80;;;8.00;40.30;;;;;;5053187;28;20021;-74
2022/02/27 01:33:08;;;;;;;2.53;0.87;;;8.00;40.90;;;;;;5053400;28;20033;-75
2022/02/27 01:35:34;;;;;;;1.97;0.77;;;8.00;41.20;;;;;;5052912;28;20044;-69
2022/02/27 01:38:00;;;;;;;1.87;0.77;;;8.00;41.70;;;;;;5053233;28;20037;-74
2022/02/27 01:40:26;;;;;;;1.93;0.70;;;8.00;41.20;;;;;;5053276;28;20083;-75
2022/02/27 01:42:52;;;;;;;1.90;0.80;;;8.00;41.00;;;;;;5053402;28;20067;-69
2022/02/27 01:45:17;;;;;;;2.33;0.70;;;8.00;40.80;;;;;;5052976;28;20020;-69
2022/02/27 01:47:43;;;;;;;1.20;0.70;;;8.10;41.10;;;;;;5053079;28;20481;-69
2022/02/27 01:50:09;;;;;;;2.47;0.90;;;8.00;41.20;;;;;;5052730;28;20025;-74
2022/02/27 01:52:35;;;;;;;2.40;1.00;;;8.10;40.60;;;;;;5053198;28;20033;-70
2022/02/27 01:55:02;;;;;;;4.27;0.73;;;8.10;41.10;;;;;;5053186;28;20033;-69
2022/02/27 01:57:27;;;;;;;2.03;0.90;;;8.10;41.00;;;;;;5052804;28;20543;-69
2022/02/27 01:59:53;;;;;;;2.60;0.90;;;8.10;41.10;;;;;;5049355;28;20063;-69
2022/02/27 02:02:19;;;;;;;2.43;0.87;;;8.10;42.10;;;;;;5048898;28;20418;-69
2022/02/27 02:04:45;;;;;;;2.77;0.90;;;8.10;41.80;;;;;;5051397;28;20021;-69
2022/02/27 02:07:12;;;;;;;2.00;0.90;;;8.10;41.40;;;;;;5052500;28;20518;-68
2022/02/27 02:09:38;;;;;;;2.30;1.00;;;8.10;42.10;;;;;;5052824;28;20056;-69
2022/02/27 02:12:04;;;;;;;2.97;0.90;;;8.00;42.10;;;;;;5052463;28;20075;-69
2022/02/27 02:14:30;;;;;;;3.20;1.10;;;8.00;42.40;;;;;;5052516;28;20032;-69
2022/02/27 02:16:56;;;;;;;2.07;1.07;;;8.00;42.40;;;;;;5052505;28;20425;-73
2022/02/27 02:19:23;;;;;;;2.83;1.07;;;8.00;41.90;;;;;;5052493;28;20767;-69
2022/02/27 02:21:52;;;;;;;2.10;0.90;;;7.90;41.90;;;;;;5052097;28;20059;-69
2022/02/27 02:24:18;;;;;;;2.73;1.00;;;8.00;41.10;;;;;;5052724;28;20032;-69
2022/02/27 02:26:45;;;;;;;1.30;0.57;;;7.90;40.40;;;;;;5056447;28;20028;-69
2022/02/27 02:29:17;;;;;;;1.17;0.70;;;8.00;40.70;;;;;;5056200;28;20087;-69
2022/02/27 02:31:45;;;;;;;3.27;0.97;;;7.90;41.30;;;;;;5056297;28;20021;-69
2022/02/27 02:34:13;;;;;;;3.83;1.00;;;7.90;41.00;;;;;;5056452;28;20489;-69
2022/02/27 02:36:40;;;;;;;2.03;0.80;;;7.90;41.20;;;;;;5056309;28;20029;-69
2022/02/27 02:39:08;;;;;;;3.57;0.87;;;7.90;41.00;;;;;;5056663;28;20363;-69
2022/02/27 02:41:33;;;;;;;1.70;0.90;;;7.90;40.80;;;;;;5056131;28;20111;-69
2022/02/27 02:44:00;;;;;;;2.67;0.70;;;7.90;40.60;;;;;;5055528;28;20108;-69
2022/02/27 02:46:25;;;;;;;1.20;0.60;;;7.90;41.30;;;;;;5056321;28;20020;-68
2022/02/27 02:48:51;;;;;;;3.63;0.50;;;7.90;41.70;;;;;;5056362;28;20393;-69
2022/02/27 02:51:17;;;;;;;2.50;0.90;;;7.90;40.60;;;;;;5055733;28;20512;-69
2022/02/27 02:53:43;;;;;;;1.77;0.70;;;7.90;40.60;;;;;;5055803;28;20033;-68
2022/02/27 02:56:10;;;;;;;2.10;0.80;;;7.90;40.50;;;;;;5055924;28;20033;-69
2022/02/27 02:58:41;;;;;;;2.80;0.80;;;7.90;41.00;;;;;;5055813;28;20033;-69
2022/02/27 03:01:09;;;;;;;2.00;0.80;;;7.90;40.90;;;;;;5056402;28;20439;-70
2022/02/27 03:03:37;;;;;;;2.83;0.90;;;7.90;40.40;;;;;;5056176;28;20056;-73
2022/02/27 03:06:03;;;;;;;2.20;0.70;;;7.90;39.60;;;;;;5055809;28;20029;-69
2022/02/27 03:08:29;;;;;;;2.00;0.60;;;7.90;40.00;;;;;;5055891;28;20113;-69
2022/02/27 03:10:55;;;;;;;1.40;0.73;;;7.90;40.10;;;;;;5055638;28;20108;-68
2022/02/27 03:13:21;;;;;;;2.10;0.83;;;7.90;40.30;;;;;;5055516;28;20036;-69
2022/02/27 03:15:46;;;;;;;2.07;0.80;;;7.90;40.30;;;;;;5055682;28;20029;-69
2022/02/27 03:18:13;;;;;;;1.80;0.73;;;7.90;40.00;;;;;;5055755;28;20090;-69
2022/02/27 03:20:39;;;;;;;1.47;0.63;;;7.90;39.80;;;;;;5055609;28;20033;-70
2022/02/27 03:23:05;;;;;;;3.40;0.90;;;7.90;39.80;;;;;;5055784;28;20519;-69
2022/02/27 03:25:31;;;;;;;2.47;0.87;;;7.90;40.10;;;;;;5055633;28;20017;-68
2022/02/27 03:27:56;;;;;;;3.80;0.70;;;7.90;39.30;;;;;;5055608;28;20374;-68
2022/02/27 03:30:22;;;;;;;1.67;0.70;;;7.90;39.40;;;;;;5055828;28;20048;-69
2022/02/27 03:32:48;;;;;;;1.00;0.63;;;7.90;39.80;;;;;;5055547;28;20469;-69
2022/02/27 03:35:19;;;;;;;1.70;0.80;;;7.90;39.50;;;;;;5055060;28;20056;-68
2022/02/27 03:37:49;;;;;;;1.73;1.00;;;7.90;39.20;;;;;;5054216;28;20069;-68
2022/02/27 03:40:15;;;;;;;1.63;0.70;;;7.90;39.70;;;;;;5055204;28;20105;-69
2022/02/27 03:42:41;;;;;;;2.13;0.80;;;7.90;40.30;;;;;;5055081;28;20017;-69
2022/02/27 03:45:08;;;;;;;3.57;0.73;;;7.80;40.10;;;;;;5055322;28;20392;-68
2022/02/27 03:47:34;;;;;;;1.83;0.70;;;7.80;40.30;;;;;;5054995;28;20396;-69
2022/02/27 03:49:59;;;;;;;2.63;0.90;;;7.80;40.40;;;;;;5055188;28;20108;-69
2022/02/27 03:52:25;;;;;;;4.13;0.93;;;7.80;39.80;;;;;;5055360;28;20025;-69
2022/02/27 03:54:51;;;;;;;1.70;0.70;;;7.90;40.00;;;;;;5055040;28;20029;-69
2022/02/27 03:57:16;;;;;;;2.67;0.80;;;7.80;40.00;;;;;;5054829;28;20037;-68
2022/02/27 03:59:42;;;;;;;1.30;0.67;;;7.80;40.00;;;;;;5054673;28;20018;-69
2022/02/27 04:02:08;;;;;;;1.77;0.80;;;7.80;39.80;;;;;;5054757;28;20025;-69
2022/02/27 04:04:33;;;;;;;2.67;0.90;;;7.80;40.50;;;;;;5054874;28;20021;-69
2022/02/27 04:06:59;;;;;;;2.00;0.70;;;7.80;39.70;;;;;;5055130;28;20021;-69
2022/02/27 04:09:25;;;;;;;2.10;0.80;;;7.80;39.60;;;;;;5054727;28;20028;-68
2022/02/27 04:11:51;;;;;;;1.73;0.77;;;7.80;39.90;;;;;;5054342;28;20025;-69
2022/02/27 04:14:16;;;;;;;2.13;1.00;;;7.80;40.40;;;;;;5054754;28;20067;-69
2022/02/27 04:16:42;;;;;;;1.13;0.90;;;7.80;39.90;;;;;;5054556;28;20436;-69
2022/02/27 04:19:08;;;;;;;3.03;1.00;;;7.80;40.00;;;;;;5054809;28;20029;-69
2022/02/27 04:21:34;;;;;;;3.27;1.23;;;7.80;39.80;;;;;;5054384;28;20508;-68
2022/02/27 04:24:00;;;;;;;2.80;0.83;;;7.90;39.70;;;;;;5054378;28;20092;-69
2022/02/27 04:26:26;;;;;;;3.27;1.10;;;7.80;39.70;;;;;;5054125;28;20024;-69
2022/02/27 04:28:52;;;;;;;2.73;1.10;;;7.80;40.30;;;;;;5054450;28;20029;-69
2022/02/27 04:31:18;;;;;;;4.43;1.10;;;7.90;38.90;;;;;;5054312;28;20083;-69
2022/02/27 04:33:43;;;;;;;3.37;1.00;;;7.80;39.30;;;;;;5054161;28;20061;-69
2022/02/27 04:36:09;;;;;;;2.93;1.00;;;7.80;39.50;;;;;;5054390;28;20040;-69
2022/02/27 04:38:35;;;;;;;1.90;0.90;;;7.80;39.80;;;;;;5053642;28;20423;-69
2022/02/27 04:41:01;;;;;;;1.60;0.90;;;7.80;40.00;;;;;;5053975;28;20028;-69
2022/02/27 04:43:26;;;;;;;3.13;1.03;;;7.80;39.20;;;;;;5053683;28;20021;-69
2022/02/27 04:45:52;;;;;;;2.50;0.97;;;7.80;39.50;;;;;;5053950;28;20021;-69
2022/02/27 04:48:18;;;;;;;2.27;1.07;;;7.80;39.10;;;;;;5054067;28;20478;-69
2022/02/27 04:50:44;;;;;;;1.50;0.80;;;7.80;39.30;;;;;;5053973;28;20051;-69
2022/02/27 04:53:10;;;;;;;2.17;0.80;;;7.80;39.20;;;;;;5053987;28;20105;-70
2022/02/27 04:55:36;;;;;;;3.17;0.90;;;7.80;39.00;;;;;;5053885;28;20032;-70
2022/02/27 04:58:02;;;;;;;4.07;1.17;;;7.80;39.00;;;;;;5053402;28;20029;-70
2022/02/27 05:00:28;;;;;;;2.50;0.90;;;7.80;39.80;;;;;;5054150;28;20024;-70
2022/02/27 05:02:54;;;;;;;2.57;1.20;;;7.80;39.50;;;;;;5053384;28;20029;-68
2022/02/27 05:05:19;;;;;;;3.47;1.00;;;7.70;39.50;;;;;;5053606;28;20032;-69
2022/02/27 05:07:45;;;;;;;2.30;1.00;;;7.70;39.50;;;;;;5053123;28;20078;-68
2022/02/27 05:10:11;;;;;;;1.83;0.90;;;7.80;39.10;;;;;;5053185;28;20044;-68
2022/02/27 05:12:41;;;;;;;1.67;1.10;;;7.80;39.30;;;;;;5053495;28;20108;-69
2022/02/27 05:15:08;;;;;;;1.97;1.10;;;7.80;39.80;;;;;;5053516;28;20059;-68
2022/02/27 05:17:34;;;;;;;2.10;0.93;;;7.80;40.00;;;;;;5053179;28;20163;-69
2022/02/27 05:20:00;;;;;;;1.87;1.07;;;7.80;40.00;;;;;;5053482;28;20032;-75
2022/02/27 05:22:26;;;;;;;2.27;1.10;;;7.80;39.60;;;;;;5053417;28;20025;-71
2022/02/27 05:24:52;;;;;;;3.87;1.23;;;7.80;40.00;;;;;;5053143;28;20040;-69
2022/02/27 05:27:18;;;;;;;1.57;0.90;;;7.70;39.80;;;;;;5053189;28;20025;-69
2022/02/27 05:29:43;;;;;;;3.13;1.40;;;7.80;39.30;;;;;;5052978;28;20385;-69
2022/02/27 05:32:09;;;;;;;3.33;1.20;;;7.80;39.50;;;;;;5053098;28;20079;-69
2022/02/27 05:34:35;;;;;;;2.27;1.00;;;7.70;39.10;;;;;;5053073;28;20520;-69
2022/02/27 05:37:00;;;;;;;3.67;1.30;;;7.70;39.30;;;;;;5053458;28;20037;-69
2022/02/27 05:39:26;;;;;;;5.60;1.30;;;7.80;38.90;;;;;;5053028;28;20051;-70
2022/02/27 05:41:52;;;;;;;3.40;1.33;;;7.80;39.50;;;;;;5052922;28;20039;-69
2022/02/27 05:44:17;;;;;;;2.30;1.50;;;7.70;39.50;;;;;;5052901;28;20059;-69
2022/02/27 05:46:43;;;;;;;2.13;1.00;;;7.70;39.70;;;;;;5053164;28;20025;-75
2022/02/27 05:49:09;;;;;;;2.67;1.10;;;7.80;39.60;;;;;;5053143;28;20025;-69
2022/02/27 05:51:35;;;;;;;2.07;1.00;;;7.80;39.90;;;;;;5052876;28;20033;-69
2022/02/27 05:54:00;;;;;;;3.37;1.30;;;7.70;39.80;;;;;;5053117;28;20025;-69
2022/02/27 05:56:26;;;;;;;1.87;1.27;;;7.80;39.80;;;;;;5052618;28;20124;-69
2022/02/27 05:58:52;;;;;;;4.20;1.53;;;7.70;40.60;;;;;;5052304;28;20492;-70
2022/02/27 06:01:18;;;;;;;4.77;1.50;;;7.70;40.50;;;;;;5052424;28;20080;-69
2022/02/27 06:03:44;;;;;;;2.40;1.27;;;7.70;39.90;;;;;;5052922;28;20021;-69
2022/02/27 06:06:10;;;;;;;3.03;1.30;;;7.80;39.70;;;;;;5052741;28;20481;-69
2022/02/27 06:08:35;;;;;;;2.27;1.07;;;7.70;40.00;;;;;;5052529;28;20029;-69
2022/02/27 06:11:01;;;;;;;2.87;1.77;;;7.70;40.10;;;;;;5052687;28;20017;-75
2022/02/27 06:13:28;;;;;;;2.90;1.57;;;7.70;40.40;;;;;;5052701;28;20017;-69
2022/02/27 06:15:54;;;;;;;5.17;1.30;;;7.70;40.60;;;;;;5052585;28;20029;-70
2022/02/27 06:18:20;;;;;;;3.87;1.60;;;7.70;40.80;;;;;;5052457;28;20025;-69
2022/02/27 06:20:46;;;;;;;2.83;1.50;;;7.70;41.00;;;;;;5052395;28;20095;-69
2022/02/27 06:23:12;;;;;;;5.07;1.53;;;7.80;40.70;;;;;;5052652;28;20032;-69
2022/02/27 06:25:38;;;;;;;3.27;1.23;;;7.80;41.00;;;;;;5052918;28;20029;-68
2022/02/27 06:28:04;;;;;;;5.03;1.70;;;7.70;41.10;;;;;;5053558;28;20033;-68
2022/02/27 06:30:31;;;;;;;2.40;1.40;;;7.80;41.30;;;;;;5052655;28;20060;-69
2022/02/27 06:32:56;;;;;;;2.63;1.17;;;7.70;41.60;;;;;;5052411;28;20031;-69
2022/02/27 06:35:24;;;;;;;3.13;1.63;;;7.80;41.60;;;;;;5052474;28;20044;-69
2022/02/27 06:37:52;;;;;;;4.03;1.60;;;7.80;41.40;;;;;;5052859;28;20131;-69
2022/02/27 06:40:19;;;;;;;2.73;1.40;;;7.80;40.90;;;;;;5052302;28;20043;-69
2022/02/27 06:42:45;;;;;;;3.43;1.73;;;7.80;41.10;;;;;;5052290;28;20540;-69
2022/02/27 06:45:12;;;;;;;2.40;1.33;;;7.90;41.10;;;;;;5052254;28;20021;-69
2022/02/27 06:47:38;;;;;;;3.43;1.77;;;7.90;41.60;;;;;;5052405;28;20118;-69
2022/02/27 06:50:05;;;;;;;4.20;1.70;;;8.00;42.60;;;;;;5052528;28;20490;-68
2022/02/27 06:52:31;;;;;;;3.17;1.60;;;8.00;41.50;;;;;;5052581;28;20021;-69
2022/02/27 06:54:57;;;;;;;4.20;1.80;;;7.90;41.70;;;;;;5052690;28;20025;-68
2022/02/27 06:57:23;;;;;;;3.53;1.80;;;8.00;42.10;;;;;;5049637;28;20504;-69
2022/02/27 06:59:49;;;;;;;3.03;1.77;;;8.00;41.70;;;;;;5049512;28;20025;-68
2022/02/27 07:02:15;;;;;;;2.67;1.67;;;8.10;41.60;;;;;;5049738;28;20488;-67
2022/02/27 07:04:40;;;;;;;4.37;1.70;;;8.20;41.00;;;;;;5051688;28;20049;-66
2022/02/27 07:07:06;;;;;;;3.33;1.67;;;8.10;41.20;;;;;;5052334;28;20338;-67
2022/02/27 07:09:33;;;;;;;3.43;1.60;;;8.10;41.30;;;;;;5052259;28;20413;-67
2022/02/27 07:11:59;;;;;;;5.97;2.13;;;8.10;41.70;;;;;;5052919;28;20492;-67
2022/02/27 07:14:24;;;;;;;3.77;1.80;;;8.10;42.30;;;;;;5055603;28;20060;-67
2022/02/27 07:16:50;;;;;;;4.77;2.20;;;8.10;42.00;;;;;;5055568;28;20037;-67
2022/02/27 07:19:16;;;;;;;2.70;1.70;;;8.10;42.50;;;;;;5055154;28;20469;-65
2022/02/27 07:21:43;;;;;;;4.00;1.93;;;8.10;43.10;;;;;;5055131;28;20029;-67
2022/02/27 07:24:09;;;;;;;4.47;2.67;;;8.20;42.50;;;;;;5054997;28;20029;-66
2022/02/27 07:26:34;;;;;;;3.53;1.70;;;8.20;42.20;;;;;;5054994;28;20029;-64
2022/02/27 07:29:00;;;;;;;4.73;2.20;;;8.20;42.80;;;;;;5055420;28;20025;-70
2022/02/27 07:31:26;;;;;;;4.30;2.03;;;8.20;42.60;;;;;;5055101;28;20032;-65
2022/02/27 07:33:51;;;;;;;2.87;1.70;;;8.20;42.20;;;;;;5054867;28;20045;-66
2022/02/27 07:36:18;;;;;;;5.20;1.80;;;8.30;42.40;;;;;;5055157;28;20454;-66
2022/02/27 07:38:46;;;;;;;3.53;2.07;;;8.30;41.80;;;;;;5055186;28;20017;-66
2022/02/27 07:41:12;;;;;;;4.47;1.83;;;8.30;42.10;;;;;;5054823;28;20025;-66
2022/02/27 07:43:38;;;;;;;4.40;1.80;;;8.30;42.70;;;;;;5055188;28;20027;-65
2022/02/27 07:46:03;;;;;;;3.57;1.97;;;8.30;42.30;;;;;;5055007;28;20385;-65
2022/02/27 07:48:30;;;;;;;3.97;2.23;;;8.40;42.40;;;;;;5054643;28;20020;-65
2022/02/27 07:50:55;;;;;;;4.33;2.17;;;8.40;41.80;;;;;;5054896;28;20032;-66
2022/02/27 07:53:21;;;;;;;3.83;1.97;;;8.50;41.00;;;;;;5054703;28;20025;-65
2022/02/27 07:55:47;;;;;;;5.03;2.17;;;8.50;41.30;;;;;;5054705;28;20032;-65
2022/02/27 07:58:13;;;;;;;4.50;2.30;;;8.50;40.60;;;;;;5053496;28;20579;-66
2022/02/27 08:00:40;;;;;;;5.37;2.27;;;8.50;39.40;;;;;;5052113;28;20116;-66
2022/02/27 08:03:08;;;;;;;3.90;1.97;;;8.50;40.90;;;;;;5052501;28;20582;-66
2022/02/27 08:05:34;;;;;;;5.73;2.63;;;8.50;40.20;;;;;;5054814;28;20369;-71
2022/02/27 08:07:59;;;;;;;6.43;1.80;;;8.50;39.60;;;;;;5054897;28;20029;-65
2022/02/27 08:10:25;;;;;;;4.03;1.90;;;8.50;40.30;;;;;;5054814;28;20029;-66
2022/02/27 08:12:52;;;;;;;4.67;2.10;;;8.50;40.30;;;;;;5054874;28;20090;-71
2022/02/27 08:15:18;;;;;;;4.13;1.93;;;8.60;40.20;;;;;;5054593;28;20044;-66
2022/02/27 08:17:44;;;;;;;5.53;2.00;;;8.60;39.50;;;;;;5054291;28;20448;-66
2022/02/27 08:20:11;;;;;;;4.97;2.10;;;8.70;40.10;;;;;;5054564;28;20036;-70
2022/02/27 08:22:37;;;;;;;6.63;2.43;;;8.80;40.60;;;;;;5052332;28;20029;-71
2022/02/27 08:25:07;;;;;;;5.30;2.27;;;8.80;40.10;;;;;;5053926;28;20040;-65
2022/02/27 08:27:33;;;;;;;2.80;1.67;;;8.90;39.30;;;;;;5053889;28;20036;-71
2022/02/27 08:29:59;;;;;;;3.67;1.97;;;8.90;38.80;;;;;;5072240;28;20051;-70
2022/02/27 08:32:25;;;;;;;4.60;1.70;;;9.00;39.10;;;;;;5074226;28;20028;-71
2022/02/27 08:34:51;;;;;;;3.00;1.80;;;9.00;39.80;;;;;;5073758;28;20467;-69
2022/02/27 08:37:16;;;;;;;3.43;1.77;;;9.10;38.10;;;;;;5058822;28;20043;-70
2022/02/27 08:39:42;;;;;;;4.00;1.93;;;9.10;38.30;;;;;;5053588;28;20045;-66
2022/02/27 08:42:08;;;;;;;3.90;2.20;;;9.10;37.50;;;;;;5053692;28;20024;-69
2022/02/27 08:44:34;;;;;;;5.23;2.23;;;9.10;37.70;;;;;;5053373;28;20075;-71
2022/02/27 08:47:04;;;;;;;4.33;2.40;;;9.20;38.60;;;;;;5053553;28;20033;-70
2022/02/27 08:49:31;;;;;;;8.03;2.30;;;9.20;38.70;;;;;;5053589;28;20029;-71
2022/02/27 08:51:57;;;;;;;5.47;2.30;;;9.30;38.20;;;;;;5053288;28;20111;-69
2022/02/27 08:54:24;;;;;;;5.20;3.50;;;9.30;38.40;;;;;;5053449;28;20031;-66
2022/02/27 08:56:50;;;;;;;4.80;2.57;;;9.30;38.50;;;;;;5053303;28;20086;-71
2022/02/27 08:59:16;;;;;;;3.87;2.00;;;9.30;38.90;;;;;;5050526;28;20397;-67
2022/02/27 09:01:43;;;;;;;5.47;1.90;;;9.40;37.50;;;;;;5050787;28;20111;-72
2022/02/27 09:04:08;;;;;;;3.10;1.67;;;9.40;37.00;;;;;;5051324;28;20553;-70
2022/02/27 09:06:34;;;;;;;4.80;2.10;;;9.40;38.40;;;;;;5030653;28;20124;-69
2022/02/27 09:09:01;;;;;;;6.90;2.30;;;9.40;38.40;;;;;;5073084;28;20017;-70
2022/02/27 09:11:27;;;;;;;3.70;2.00;;;9.50;38.00;;;;;;5073334;28;20074;-71
2022/02/27 09:13:53;;;;;;;5.17;1.73;;;9.50;38.40;;;;;;5073245;28;20021;-71
2022/02/27 09:16:19;;;;;;;3.30;2.00;;;9.50;38.40;;;;;;5072853;28;20039;-66
2022/02/27 09:18:44;;;;;;;5.60;2.27;;;9.60;38.30;;;;;;5073337;28;20388;-66
2022/02/27 09:21:10;;;;;;;4.70;1.80;;;9.60;38.20;;;;;;5073495;28;20156;-66
2022/02/27 09:23:36;;;;;;;4.53;2.23;;;9.60;37.90;;;;;;5071469;28;20066;-65
2022/02/27 09:26:03;;;;;;;4.10;1.93;;;9.70;38.60;;;;;;5069883;28;20396;-69
2022/02/27 09:28:29;;;;;;;3.43;2.00;;;9.70;39.30;;;;;;5069312;28;20031;-66
2022/02/27 09:30:55;;;;;;;4.63;2.10;;;9.80;37.00;;;;;;5073218;28;20419;-66
2022/02/27 09:33:21;;;;;;;4.50;1.80;;;9.80;38.10;;;;;;5073282;28;20036;-71
2022/02/27 09:35:47;;;;;;;4.13;2.07;;;9.90;37.00;;;;;;5072095;28;20070;-71
2022/02/27 09:38:12;;;;;;;3.33;1.90;;;9.80;37.40;;;;;;5072694;28;20504;-71
2022/02/27 09:40:38;;;;;;;3.17;1.60;;;9.90;36.30;;;;;;5073149;28;20095;-70
2022/02/27 09:43:04;;;;;;;3.97;2.00;;;9.90;36.80;;;;;;5073027;28;20028;-70
2022/02/27 09:45:30;;;;;;;4.80;2.10;;;9.80;37.60;;;;;;5073027;28;20462;-66
2022/02/27 09:47:57;;;;;;;3.10;2.07;;;9.90;38.20;;;;;;5073320;28;20115;-70
2022/02/27 09:50:24;;;;;;;2.37;1.50;;;9.90;36.80;;;;;;5073096;28;20024;-66
2022/02/27 09:52:51;;;;;;;4.57;1.97;;;10.00;37.30;;;;;;5072923;28;20047;-66
2022/02/27 09:55:18;;;;;;;4.37;2.07;;;10.00;37.00;;;;;;5073166;28;20016;-66
2022/02/27 09:57:49;;;;;;;4.03;2.10;;;10.00;35.90;;;;;;5072822;28;20043;-71
2022/02/27 10:00:17;;;;;;;3.40;1.80;;;10.10;35.40;;;;;;5072562;28;20103;-66
2022/02/27 10:03:28;;;;;;;4.60;1.80;;;10.10;36.00;;;;;;5073214;28;20115;-66
2022/02/27 10:06:07;;;;;;;4.07;2.13;;;10.10;37.00;;;;;;5030699;28;20045;-70
2022/02/27 10:08:38;;;;;;;3.97;2.00;;;10.00;36.90;;;;;;5030698;28;20556;-70
2022/02/27 10:11:04;;;;;;;2.70;1.57;;;10.10;37.20;;;;;;5057599;28;20066;-66
2022/02/27 10:13:34;;;;;;;4.60;1.90;;;;;;;;;;5072974;28;20029;-66
2022/02/27 10:16:04;;;;;;;5.33;2.30;;;;;;;;;;5072401;28;20104;-66
2022/02/27 10:18:37;;;;;;;4.97;1.80;;;;;;;;;;5072679;28;20157;-70
2022/02/27 10:21:03;;;;;;;4.60;1.93;;;;;;;;;;5072727;28;20035;-66
2022/02/27 10:23:29;;;;;;;4.20;1.80;;;;;;;;;;5072477;28;20036;-66
2022/02/27 10:25:56;;;;;;;2.80;1.93;;;;;;;;;;5072701;28;20480;-65
2022/02/27 10:28:22;;;;;;;4.03;2.30;;;;;;;;;;5072693;28;20108;-65
2022/02/27 10:30:50;;;;;;;4.30;2.07;;;;;;;;;;5072480;28;20024;-66
2022/02/27 10:33:16;;;;;;;5.43;2.10;;;;;;;;;;5072963;28;20032;-66
2022/02/27 10:35:47;;;;;;;5.20;2.13;;;;;;;;;;5072333;28;20086;-65
2022/02/27 10:38:17;;;;;;;5.47;2.10;;;;;;;;;;5072312;28;20115;-66
2022/02/27 10:40:50;;;;;;;5.00;2.40;;;;;;;;;;5072634;28;20059;-66
2022/02/27 10:43:18;;;;;;;4.15;1.90;;;;;;;;;;5072548;28;20052;-66
2022/02/27 10:45:44;;;;;;;3.77;1.90;;;;;;;;;;5073222;28;20031;-67
2022/02/27 10:48:15;;;;;;;3.90;2.43;;;;;;;;;;5076207;28;20021;-65
2022/02/27 10:50:41;;;;;;;3.47;1.80;;;;;;;;;;5076064;28;20038;-70
2022/02/27 10:53:07;;;;;;;3.47;1.90;;;;;;;;;;5075830;28;20058;-66
2022/02/27 10:55:34;;;;;;;5.73;2.67;;;;;;;;;;5076044;28;20488;-66
2022/02/27 10:58:01;;;;;;;5.17;2.13;;;;;;;;;;5076111;28;20033;-65
2022/02/27 11:00:28;;;;;;;4.60;2.13;;;;;;;;;;5076156;28;20158;-66
2022/02/27 11:03:02;;;;;;;5.67;2.50;;;;;;;;;;5076353;28;20396;-66
2022/02/27 11:05:32;;;;;;;6.23;2.13;;;;;;;;;;5076148;28;20439;-66
2022/02/27 11:08:00;;;;;;;4.43;1.97;;;;;;;;;;5075661;28;20039;-70
2022/02/27 11:10:27;;;;;;;4.97;2.20;;;;;;;;;;5075653;28;20024;-66
2022/02/27 11:12:54;;;;;;;4.70;1.83;;;;;;;;;;5075937;28;20397;-70
2022/02/27 11:15:21;;;;;;;5.73;2.50;;;;;;;;;;5075887;28;20099;-66
2022/02/27 11:17:47;;;;;;;5.75;2.65;;;;;;;;;;5075627;28;20070;-66
2022/02/27 11:20:14;;;;;;;3.43;2.20;;;;;;;;;;5076134;28;20028;-66
2022/02/27 11:22:40;;;;;;;3.70;1.93;;;;;;;;;;5074705;28;20028;-66
2022/02/27 11:25:08;;;;;;;5.20;2.50;;;;;;;;;;5072727;28;20035;-66
2022/02/27 11:27:41;;;;;;;17.70;10.90;;;;;;;;;;5072579;28;20027;-66
2022/02/27 11:30:09;;;;;;;7.30;4.00;;;;;;;;;;5073796;28;20575;-67
2022/02/27 11:32:44;;;;;;;4.07;2.53;;;;;;;;;;5075437;28;20501;-66
2022/02/27 11:35:10;;;;;;;5.13;2.63;;;;;;;;;;5075267;28;20052;-66
2022/02/27 11:37:49;;;;;;;5.03;2.20;;;;;;;;;;5074862;28;20043;-71
2022/02/27 11:40:29;;;;;;;5.40;2.67;;;;;;;;;;5075093;28;20070;-67
2022/02/27 11:43:00;;;;;;;5.40;2.70;;;;;;;;;;5075465;28;20021;-66
2022/02/27 11:45:36;;;;;;;6.30;2.77;;;;;;;;;;5075027;28;20028;-65
2022/02/27 11:48:02;;;;;;;5.13;2.30;;;;;;;;;;5074999;28;20037;-65
2022/02/27 11:50:29;;;;;;;7.07;2.30;;;;;;;;;;5074894;28;20374;-66
2022/02/27 11:52:55;;;;;;;5.10;2.83;;;;;;;;;;5072354;28;20028;-66
2022/02/27 11:55:43;;;;;;;5.07;2.70;;;;;;;;;;5072201;28;20036;-66
2022/02/27 11:58:20;;;;;;;5.80;3.90;;;;;;;;;;5072997;28;20093;-71
2022/02/27 12:00:46;;;;;;;10.73;4.13;;;;;;;;;;5074997;28;20086;-66
2022/02/27 12:03:30;;;;;;;5.83;3.23;;;;;;;;;;5074729;28;20017;-66
2022/02/27 12:06:06;;;;;;;5.30;2.83;;;;;;;;;;5074898;28;20067;-66
2022/02/27 12:08:51;;;;;;;6.27;4.07;;;;;;;;;;5074619;28;20060;-66
2022/02/27 12:11:30;;;;;;;7.77;3.43;;;;;;;;;;5074810;28;20135;-66
2022/02/27 12:13:59;;;;;;;6.60;3.43;;;;;;;;;;5074712;28;20032;-66
2022/02/27 12:16:48;;;;;;;4.30;2.60;;;;;;;;;;5074020;28;20028;-66
2022/02/27 12:19:25;;;;;;;6.95;3.85;;;;;;;;;;5069200;28;20116;-65
2022/02/27 12:21:52;;;;;;;6.80;4.13;;;;;;;;;;5074411;28;20028;-66
2022/02/27 12:24:21;;;;;;;3.73;2.33;;;;;;;;;;5074381;28;20028;-66
2022/02/27 12:26:52;;;;;;;4.57;2.90;;;;;;;;;;5074443;28;20059;-65
2022/02/27 12:29:19;;;;;;;6.20;3.80;;;;;;;;;;5074353;28;20020;-67
2022/02/27 12:31:45;;;;;;;9.07;4.75;;;;;;;;;;5073857;28;20155;-66
2022/02/27 12:34:16;;;;;;;4.63;3.03;;;;;;;;;;5074055;28;20509;-67
2022/02/27 12:36:42;;;;;;;4.57;2.93;;;;;;;;;;5074094;28;20028;-69
2022/02/27 12:39:13;;;;;;;6.43;3.57;;;;;;;;;;5074078;28;20094;-67
2022/02/27 12:41:40;;;;;;;4.57;3.20;;;;;;;;;;5074187;28;20031;-67
2022/02/27 12:44:09;;;;;;;5.03;2.90;;;;;;;;;;5074093;28;20095;-67
2022/02/27 12:46:35;;;;;;;6.20;3.20;;;;;;;;;;5073640;28;20116;-67
2022/02/27 12:51:47;;;;;;;11.23;6.60;;;;;;;;;;5073941;28;20043;-67
2022/02/27 12:54:23;;;;;;;13.27;8.18;;;;;;;;;;5073575;28;20043;-66
2022/02/27 12:56:56;;;;;;;4.68;3.33;;;;;;;;;;5073693;28;20028;-66
2022/02/27 12:59:22;;;;;;;6.72;3.58;;;;;;;;;;5073917;28;20024;-70
2022/02/27 13:01:53;;;;;;;6.00;3.28;;;;;;;;;;5073540;28;20111;-67
2022/02/27 13:04:19;;;;;;;8.30;3.50;;;;;;;;;;5073597;28;20108;-65
2022/02/27 13:06:57;;;;;;;6.10;3.15;;;;;;;;;;5073634;28;20032;-69
2022/02/27 13:09:26;;;;;;;4.00;2.50;;;;;;;;;;5073153;28;20037;-70
2022/02/27 13:11:54;;;;;;;6.72;3.33;;;;;;;;;;5073683;28;20017;-66
2022/02/27 13:14:24;;;;;;;6.85;3.42;;;;;;;;;;5073776;28;20029;-66
2022/02/27 13:16:51;;;;;;;5.38;3.10;;;;;;;;;;5073182;28;20043;-67
2022/02/27 13:19:29;;;;;;;4.97;3.13;;;;;;;;;;5073292;28;20025;-67
2022/02/27 13:21:55;;;;;;;5.10;2.75;;;;;;;;;;5072944;28;20115;-66